createdAt,value
2023-07-11T00:02:00.814Z,22.60
2023-07-11T00:12:02.563Z,22.40
2023-07-11T00:22:04.390Z,22.10
2023-07-11T00:32:07.934Z,22.10
2023-07-11T00:42:11.121Z,22.10
2023-07-11T00:52:15.324Z,22.00
2023-07-11T01:02:21.837Z,21.90
2023-07-11T01:12:23.579Z,21.60
2023-07-11T01:22:27.479Z,21.60
2023-07-11T01:32:29.336Z,21.60
2023-07-11T01:42:31.134Z,21.30
2023-07-11T01:52:32.936Z,21.20
2023-07-11T02:02:34.785Z,21.20
2023-07-11T02:12:36.557Z,21.10
2023-07-11T02:22:38.290Z,21.00
2023-07-11T02:32:40.750Z,20.80
2023-07-11T02:42:42.496Z,20.80
2023-07-11T02:52:44.277Z,20.60
2023-07-11T03:02:46.016Z,20.50
2023-07-11T03:12:47.991Z,20.50
2023-07-11T03:22:49.667Z,20.40
2023-07-11T03:32:51.427Z,20.40
2023-07-11T03:42:53.542Z,20.30
2023-07-11T03:52:55.261Z,20.20
2023-07-11T04:02:56.976Z,20.20
2023-07-11T04:12:58.710Z,20.20
2023-07-11T04:23:00.428Z,20.20
2023-07-11T04:33:02.260Z,20.30
2023-07-11T04:43:04.322Z,20.50
2023-07-11T04:53:06.001Z,20.50
2023-07-11T05:03:07.717Z,20.80
2023-07-11T05:13:11.121Z,21.00
2023-07-11T05:23:14.076Z,21.00
2023-07-11T05:33:16.814Z,21.30
2023-07-11T05:43:18.591Z,21.50
2023-07-11T05:53:20.302Z,21.80
2023-07-11T06:03:24.777Z,22.00
2023-07-11T06:13:28.563Z,22.10
2023-07-11T06:23:30.508Z,22.50
2023-07-11T06:33:32.526Z,22.80
2023-07-11T06:43:34.375Z,23.00
2023-07-11T06:53:36.392Z,23.30
2023-07-11T07:03:38.419Z,23.60
2023-07-11T07:13:48.660Z,23.90
2023-07-11T07:23:58.025Z,24.20
2023-07-11T07:33:59.871Z,24.50
2023-07-11T07:44:01.615Z,24.70
2023-07-11T07:54:03.435Z,25.00
2023-07-11T08:04:05.352Z,25.20
2023-07-11T08:14:07.820Z,25.50
2023-07-11T08:24:10.072Z,25.80
2023-07-11T08:34:11.937Z,26.00
2023-07-11T08:44:38.028Z,26.30
2023-07-11T08:55:18.092Z,26.60
2023-07-11T09:05:36.373Z,26.90
2023-07-11T09:15:52.475Z,27.20
2023-07-11T09:26:01.528Z,27.50
2023-07-11T09:36:12.693Z,27.70
2023-07-11T09:46:22.561Z,28.00
2023-07-11T09:56:26.448Z,28.20
2023-07-11T10:16:37.028Z,28.60
2023-07-11T10:26:39.893Z,28.90
2023-07-11T10:36:47.575Z,29.20
2023-07-11T10:46:52.966Z,29.30
2023-07-11T10:57:05.192Z,29.50
2023-07-11T11:07:15.124Z,29.70
2023-07-11T11:17:21.684Z,29.80
2023-07-11T11:27:33.489Z,30.00
2023-07-11T11:37:55.895Z,30.20
2023-07-11T11:58:14.668Z,30.60
2023-07-11T12:08:27.810Z,30.90
2023-07-11T12:18:42.791Z,31.30
2023-07-11T12:28:48.167Z,31.60
2023-07-11T12:39:00.606Z,31.90
2023-07-11T12:49:22.216Z,32.00
2023-07-11T12:59:25.083Z,32.10
2023-07-11T13:09:27.362Z,32.10
2023-07-11T13:19:29.880Z,32.20
2023-07-11T13:29:39.021Z,32.30
2023-07-11T13:39:47.735Z,32.50
2023-07-11T13:50:18.339Z,32.50
2023-07-11T14:00:21.606Z,32.80
2023-07-11T14:10:25.738Z,33.00
2023-07-11T14:20:29.025Z,33.10
2023-07-11T14:30:31.570Z,33.20
2023-07-11T14:40:33.314Z,34.30
2023-07-11T14:50:35.010Z,34.50
2023-07-11T15:00:36.971Z,34.20
2023-07-11T15:10:38.714Z,35.70
2023-07-11T15:20:41.488Z,35.50
2023-07-11T15:30:44.430Z,35.40
2023-07-11T15:40:46.895Z,36.10
2023-07-11T15:50:52.861Z,34.90
2023-07-11T16:00:54.935Z,34.50
2023-07-11T16:11:01.644Z,34.40
2023-07-11T16:21:03.401Z,36.50
2023-07-11T16:31:06.521Z,36.70
2023-07-11T16:41:08.902Z,35.90
2023-07-11T16:51:21.579Z,36.00
2023-07-11T17:01:23.262Z,35.50
2023-07-11T17:11:25.676Z,35.00
2023-07-11T17:21:27.429Z,35.00
2023-07-11T17:31:29.286Z,34.00
2023-07-11T17:41:33.255Z,33.40
2023-07-11T17:51:35.229Z,32.80
2023-07-11T18:01:37.030Z,32.30
2023-07-11T18:11:38.784Z,31.90
2023-07-11T18:21:40.428Z,31.60
2023-07-11T18:31:42.133Z,31.50
2023-07-11T18:41:43.812Z,31.30
2023-07-11T18:51:45.503Z,31.00
2023-07-11T19:01:47.203Z,30.70
2023-07-11T19:11:48.889Z,30.50
2023-07-11T19:21:50.549Z,30.20
2023-07-11T19:31:54.949Z,30.10
2023-07-11T19:41:56.752Z,29.90
2023-07-11T19:51:58.444Z,29.90
2023-07-11T20:02:00.214Z,29.80
2023-07-11T20:12:01.977Z,29.70
2023-07-11T20:22:03.932Z,29.70
2023-07-11T20:32:12.569Z,29.50
2023-07-11T20:42:14.296Z,29.50
2023-07-11T20:52:16.128Z,29.40
2023-07-11T21:02:17.826Z,29.30
2023-07-11T21:12:20.596Z,29.20
2023-07-11T21:22:22.367Z,29.00
2023-07-11T21:32:24.125Z,29.00
2023-07-11T21:42:26.159Z,28.90
2023-07-11T21:52:27.867Z,28.90
2023-07-11T22:02:29.930Z,28.50
2023-07-11T22:12:32.907Z,27.80
2023-07-11T22:22:34.604Z,27.20
2023-07-11T22:32:36.281Z,26.40
2023-07-11T22:42:37.952Z,25.90
2023-07-11T22:52:39.612Z,25.40
2023-07-11T23:02:41.376Z,24.70
2023-07-11T23:12:43.136Z,24.20
2023-07-11T23:22:46.313Z,23.80
2023-07-11T23:32:49.708Z,23.60
2023-07-11T23:42:51.440Z,23.40
2023-07-11T23:52:53.114Z,23.40
